sensor_id;sensor_type;location;lat;lon;timestamp;P1;durP1;ratioP1;P2;durP2;ratioP2
50605;SDS011;36557;53.572;10.170;2023-07-29T00:00:41;2.92;;;1.90;;
50605;SDS011;36557;53.572;10.170;2023-07-29T00:03:07;2.83;;;1.90;;
50605;SDS011;36557;53.572;10.170;2023-07-29T00:05:34;4.47;;;1.85;;
50605;SDS011;36557;53.572;10.170;2023-07-29T00:08:00;2.35;;;1.67;;
50605;SDS011;36557;53.572;10.170;2023-07-29T00:10:28;3.88;;;1.90;;
50605;SDS011;36557;53.572;10.170;2023-07-29T00:12:55;3.78;;;1.80;;
50605;SDS011;36557;53.572;10.170;2023-07-29T00:15:21;2.28;;;1.63;;
50605;SDS011;36557;53.572;10.170;2023-07-29T00:17:49;4.03;;;1.90;;
50605;SDS011;36557;53.572;10.170;2023-07-29T00:20:15;3.28;;;2.00;;
50605;SDS011;36557;53.572;10.170;2023-07-29T00:22:41;3.53;;;1.80;;
50605;SDS011;36557;53.572;10.170;2023-07-29T00:25:07;2.45;;;1.83;;
50605;SDS011;36557;53.572;10.170;2023-07-29T00:27:32;2.55;;;1.90;;
50605;SDS011;36557;53.572;10.170;2023-07-29T00:29:58;3.15;;;1.90;;
50605;SDS011;36557;53.572;10.170;2023-07-29T00:32:24;2.20;;;1.83;;
50605;SDS011;36557;53.572;10.170;2023-07-29T00:34:50;2.80;;;1.90;;
50605;SDS011;36557;53.572;10.170;2023-07-29T00:37:15;3.55;;;1.77;;
50605;SDS011;36557;53.572;10.170;2023-07-29T00:39:41;3.10;;;2.08;;
50605;SDS011;36557;53.572;10.170;2023-07-29T00:42:07;2.72;;;1.77;;
50605;SDS011;36557;53.572;10.170;2023-07-29T00:44:33;2.58;;;2.13;;
50605;SDS011;36557;53.572;10.170;2023-07-29T00:47:00;5.25;;;2.15;;
50605;SDS011;36557;53.572;10.170;2023-07-29T00:49:27;4.65;;;2.40;;
50605;SDS011;36557;53.572;10.170;2023-07-29T00:51:54;3.15;;;2.20;;
50605;SDS011;36557;53.572;10.170;2023-07-29T00:54:20;2.67;;;2.17;;
50605;SDS011;36557;53.572;10.170;2023-07-29T00:56:45;4.03;;;2.25;;
50605;SDS011;36557;53.572;10.170;2023-07-29T00:59:11;4.30;;;2.20;;
50605;SDS011;36557;53.572;10.170;2023-07-29T01:01:37;3.50;;;2.70;;
50605;SDS011;36557;53.572;10.170;2023-07-29T01:04:04;3.28;;;2.30;;
50605;SDS011;36557;53.572;10.170;2023-07-29T01:06:34;4.03;;;2.25;;
50605;SDS011;36557;53.572;10.170;2023-07-29T01:09:05;2.55;;;2.10;;
50605;SDS011;36557;53.572;10.170;2023-07-29T01:11:46;4.10;;;2.08;;
50605;SDS011;36557;53.572;10.170;2023-07-29T01:15:01;3.22;;;2.60;;
50605;SDS011;36557;53.572;10.170;2023-07-29T01:17:46;3.22;;;2.10;;
50605;SDS011;36557;53.572;10.170;2023-07-29T01:20:16;3.60;;;2.20;;
50605;SDS011;36557;53.572;10.170;2023-07-29T01:22:42;4.32;;;2.55;;
50605;SDS011;36557;53.572;10.170;2023-07-29T01:25:08;3.85;;;2.47;;
50605;SDS011;36557;53.572;10.170;2023-07-29T01:27:34;3.97;;;2.50;;
50605;SDS011;36557;53.572;10.170;2023-07-29T01:30:00;3.20;;;2.17;;
50605;SDS011;36557;53.572;10.170;2023-07-29T01:32:30;3.47;;;2.55;;
50605;SDS011;36557;53.572;10.170;2023-07-29T01:35:00;3.28;;;2.28;;
50605;SDS011;36557;53.572;10.170;2023-07-29T01:37:32;3.80;;;2.45;;
50605;SDS011;36557;53.572;10.170;2023-07-29T01:40:02;2.83;;;2.17;;
50605;SDS011;36557;53.572;10.170;2023-07-29T01:42:29;3.10;;;2.60;;
50605;SDS011;36557;53.572;10.170;2023-07-29T01:44:56;3.28;;;2.38;;
50605;SDS011;36557;53.572;10.170;2023-07-29T01:47:22;3.80;;;2.70;;
50605;SDS011;36557;53.572;10.170;2023-07-29T01:49:47;3.33;;;2.42;;
50605;SDS011;36557;53.572;10.170;2023-07-29T01:52:13;3.38;;;2.40;;
50605;SDS011;36557;53.572;10.170;2023-07-29T01:54:39;4.30;;;2.67;;
50605;SDS011;36557;53.572;10.170;2023-07-29T01:57:05;2.60;;;2.10;;
50605;SDS011;36557;53.572;10.170;2023-07-29T01:59:30;8.18;;;2.90;;
50605;SDS011;36557;53.572;10.170;2023-07-29T02:01:56;4.75;;;2.97;;
50605;SDS011;36557;53.572;10.170;2023-07-29T02:04:22;3.85;;;2.90;;
50605;SDS011;36557;53.572;10.170;2023-07-29T02:06:47;4.03;;;2.95;;
50605;SDS011;36557;53.572;10.170;2023-07-29T02:09:13;4.43;;;2.55;;
50605;SDS011;36557;53.572;10.170;2023-07-29T02:11:39;4.72;;;3.45;;
50605;SDS011;36557;53.572;10.170;2023-07-29T02:14:05;4.18;;;2.97;;
50605;SDS011;36557;53.572;10.170;2023-07-29T02:16:30;3.42;;;2.75;;
50605;SDS011;36557;53.572;10.170;2023-07-29T02:18:57;4.45;;;3.13;;
50605;SDS011;36557;53.572;10.170;2023-07-29T02:21:23;4.70;;;3.30;;
50605;SDS011;36557;53.572;10.170;2023-07-29T02:23:49;3.80;;;3.03;;
50605;SDS011;36557;53.572;10.170;2023-07-29T02:26:15;3.90;;;3.20;;
50605;SDS011;36557;53.572;10.170;2023-07-29T02:28:41;4.00;;;3.08;;
50605;SDS011;36557;53.572;10.170;2023-07-29T02:31:17;3.28;;;2.45;;
50605;SDS011;36557;53.572;10.170;2023-07-29T02:33:45;3.78;;;3.05;;
50605;SDS011;36557;53.572;10.170;2023-07-29T02:36:12;5.18;;;3.70;;
50605;SDS011;36557;53.572;10.170;2023-07-29T02:38:38;5.20;;;3.22;;
50605;SDS011;36557;53.572;10.170;2023-07-29T02:41:05;8.80;;;3.20;;
50605;SDS011;36557;53.572;10.170;2023-07-29T02:43:31;4.93;;;3.60;;
50605;SDS011;36557;53.572;10.170;2023-07-29T02:45:57;5.25;;;3.22;;
50605;SDS011;36557;53.572;10.170;2023-07-29T02:48:22;4.85;;;3.42;;
50605;SDS011;36557;53.572;10.170;2023-07-29T02:50:49;5.63;;;3.47;;
50605;SDS011;36557;53.572;10.170;2023-07-29T02:53:15;5.35;;;3.28;;
50605;SDS011;36557;53.572;10.170;2023-07-29T02:55:41;4.43;;;3.30;;
50605;SDS011;36557;53.572;10.170;2023-07-29T02:58:07;4.43;;;3.13;;
50605;SDS011;36557;53.572;10.170;2023-07-29T03:00:32;5.43;;;3.53;;
50605;SDS011;36557;53.572;10.170;2023-07-29T03:02:58;5.30;;;3.78;;
50605;SDS011;36557;53.572;10.170;2023-07-29T03:05:24;4.40;;;3.35;;
50605;SDS011;36557;53.572;10.170;2023-07-29T03:07:52;5.65;;;4.00;;
50605;SDS011;36557;53.572;10.170;2023-07-29T03:10:18;5.15;;;3.92;;
50605;SDS011;36557;53.572;10.170;2023-07-29T03:12:44;4.13;;;3.38;;
50605;SDS011;36557;53.572;10.170;2023-07-29T03:15:09;4.88;;;3.63;;
50605;SDS011;36557;53.572;10.170;2023-07-29T03:17:35;6.45;;;3.60;;
50605;SDS011;36557;53.572;10.170;2023-07-29T03:20:01;5.78;;;4.00;;
50605;SDS011;36557;53.572;10.170;2023-07-29T03:22:27;5.95;;;4.55;;
50605;SDS011;36557;53.572;10.170;2023-07-29T03:24:52;4.90;;;3.88;;
50605;SDS011;36557;53.572;10.170;2023-07-29T03:27:18;7.30;;;3.72;;
50605;SDS011;36557;53.572;10.170;2023-07-29T03:29:44;4.85;;;3.55;;
50605;SDS011;36557;53.572;10.170;2023-07-29T03:32:09;5.05;;;4.10;;
50605;SDS011;36557;53.572;10.170;2023-07-29T03:34:36;6.40;;;4.47;;
50605;SDS011;36557;53.572;10.170;2023-07-29T03:37:01;5.70;;;4.28;;
50605;SDS011;36557;53.572;10.170;2023-07-29T03:39:27;6.60;;;4.28;;
50605;SDS011;36557;53.572;10.170;2023-07-29T03:41:53;6.07;;;4.30;;
50605;SDS011;36557;53.572;10.170;2023-07-29T03:44:19;7.43;;;4.88;;
50605;SDS011;36557;53.572;10.170;2023-07-29T03:46:44;6.63;;;4.93;;
50605;SDS011;36557;53.572;10.170;2023-07-29T03:49:10;7.90;;;5.60;;
50605;SDS011;36557;53.572;10.170;2023-07-29T03:51:36;9.40;;;5.20;;
50605;SDS011;36557;53.572;10.170;2023-07-29T03:54:02;6.60;;;5.60;;
50605;SDS011;36557;53.572;10.170;2023-07-29T03:56:31;8.50;;;5.15;;
50605;SDS011;36557;53.572;10.170;2023-07-29T03:59:06;6.63;;;4.78;;
50605;SDS011;36557;53.572;10.170;2023-07-29T04:01:32;8.30;;;5.72;;
50605;SDS011;36557;53.572;10.170;2023-07-29T04:03:58;12.13;;;5.93;;
50605;SDS011;36557;53.572;10.170;2023-07-29T04:06:24;10.00;;;5.93;;
50605;SDS011;36557;53.572;10.170;2023-07-29T04:08:50;7.43;;;5.22;;
50605;SDS011;36557;53.572;10.170;2023-07-29T04:11:16;5.88;;;4.88;;
50605;SDS011;36557;53.572;10.170;2023-07-29T04:13:42;9.90;;;5.80;;
50605;SDS011;36557;53.572;10.170;2023-07-29T04:16:07;7.60;;;5.03;;
50605;SDS011;36557;53.572;10.170;2023-07-29T04:18:33;8.60;;;5.90;;
50605;SDS011;36557;53.572;10.170;2023-07-29T04:20:59;9.85;;;6.10;;
50605;SDS011;36557;53.572;10.170;2023-07-29T04:23:24;8.77;;;5.80;;
50605;SDS011;36557;53.572;10.170;2023-07-29T04:25:50;11.52;;;6.10;;
50605;SDS011;36557;53.572;10.170;2023-07-29T04:28:16;9.82;;;5.90;;
50605;SDS011;36557;53.572;10.170;2023-07-29T04:30:42;7.63;;;5.95;;
50605;SDS011;36557;53.572;10.170;2023-07-29T04:33:08;10.38;;;5.93;;
50605;SDS011;36557;53.572;10.170;2023-07-29T04:35:33;10.43;;;7.18;;
50605;SDS011;36557;53.572;10.170;2023-07-29T04:37:59;10.27;;;7.70;;
50605;SDS011;36557;53.572;10.170;2023-07-29T04:40:25;13.52;;;7.38;;
50605;SDS011;36557;53.572;10.170;2023-07-29T04:42:51;14.40;;;8.00;;
50605;SDS011;36557;53.572;10.170;2023-07-29T04:45:17;11.93;;;8.27;;
50605;SDS011;36557;53.572;10.170;2023-07-29T04:47:42;13.73;;;7.53;;
50605;SDS011;36557;53.572;10.170;2023-07-29T04:50:08;10.75;;;7.18;;
50605;SDS011;36557;53.572;10.170;2023-07-29T04:52:34;11.18;;;7.47;;
50605;SDS011;36557;53.572;10.170;2023-07-29T04:55:03;13.07;;;9.32;;
50605;SDS011;36557;53.572;10.170;2023-07-29T04:57:29;14.30;;;9.35;;
50605;SDS011;36557;53.572;10.170;2023-07-29T04:59:54;14.02;;;8.82;;
50605;SDS011;36557;53.572;10.170;2023-07-29T05:02:20;12.30;;;7.80;;
50605;SDS011;36557;53.572;10.170;2023-07-29T05:04:46;14.40;;;9.57;;
50605;SDS011;36557;53.572;10.170;2023-07-29T05:07:11;13.75;;;9.45;;
50605;SDS011;36557;53.572;10.170;2023-07-29T05:09:37;15.18;;;9.25;;
50605;SDS011;36557;53.572;10.170;2023-07-29T05:12:03;13.10;;;9.13;;
50605;SDS011;36557;53.572;10.170;2023-07-29T05:14:29;16.80;;;9.60;;
50605;SDS011;36557;53.572;10.170;2023-07-29T05:16:55;14.13;;;9.98;;
50605;SDS011;36557;53.572;10.170;2023-07-29T05:19:20;16.10;;;9.60;;
50605;SDS011;36557;53.572;10.170;2023-07-29T05:21:46;13.73;;;9.80;;
50605;SDS011;36557;53.572;10.170;2023-07-29T05:24:12;16.20;;;10.73;;
50605;SDS011;36557;53.572;10.170;2023-07-29T05:26:37;14.95;;;11.07;;
50605;SDS011;36557;53.572;10.170;2023-07-29T05:29:03;14.85;;;10.90;;
50605;SDS011;36557;53.572;10.170;2023-07-29T05:31:29;15.55;;;10.30;;
50605;SDS011;36557;53.572;10.170;2023-07-29T05:33:54;16.73;;;11.15;;
50605;SDS011;36557;53.572;10.170;2023-07-29T05:36:20;16.27;;;11.68;;
50605;SDS011;36557;53.572;10.170;2023-07-29T05:38:46;18.00;;;12.85;;
50605;SDS011;36557;53.572;10.170;2023-07-29T05:41:11;15.93;;;11.45;;
50605;SDS011;36557;53.572;10.170;2023-07-29T05:43:37;15.85;;;11.60;;
50605;SDS011;36557;53.572;10.170;2023-07-29T05:46:03;16.95;;;11.30;;
50605;SDS011;36557;53.572;10.170;2023-07-29T05:48:29;14.65;;;10.43;;
50605;SDS011;36557;53.572;10.170;2023-07-29T05:50:54;15.73;;;10.65;;
50605;SDS011;36557;53.572;10.170;2023-07-29T05:53:20;15.02;;;11.02;;
50605;SDS011;36557;53.572;10.170;2023-07-29T05:55:46;15.55;;;10.75;;
50605;SDS011;36557;53.572;10.170;2023-07-29T05:58:12;17.63;;;11.98;;
50605;SDS011;36557;53.572;10.170;2023-07-29T06:00:38;15.43;;;11.07;;
50605;SDS011;36557;53.572;10.170;2023-07-29T06:03:04;17.27;;;12.18;;
50605;SDS011;36557;53.572;10.170;2023-07-29T06:05:29;18.27;;;12.80;;
50605;SDS011;36557;53.572;10.170;2023-07-29T06:07:55;20.10;;;13.35;;
50605;SDS011;36557;53.572;10.170;2023-07-29T06:10:21;19.45;;;13.15;;
50605;SDS011;36557;53.572;10.170;2023-07-29T06:12:47;19.48;;;13.23;;
50605;SDS011;36557;53.572;10.170;2023-07-29T06:15:13;19.65;;;14.07;;
50605;SDS011;36557;53.572;10.170;2023-07-29T06:17:39;19.45;;;13.23;;
50605;SDS011;36557;53.572;10.170;2023-07-29T06:20:06;19.27;;;12.90;;
50605;SDS011;36557;53.572;10.170;2023-07-29T06:22:32;20.50;;;13.32;;
50605;SDS011;36557;53.572;10.170;2023-07-29T06:24:57;18.80;;;13.68;;
50605;SDS011;36557;53.572;10.170;2023-07-29T06:27:23;19.50;;;13.90;;
50605;SDS011;36557;53.572;10.170;2023-07-29T06:29:50;20.90;;;13.13;;
50605;SDS011;36557;53.572;10.170;2023-07-29T06:32:16;16.45;;;12.95;;
50605;SDS011;36557;53.572;10.170;2023-07-29T06:34:41;15.80;;;11.20;;
50605;SDS011;36557;53.572;10.170;2023-07-29T06:37:07;15.15;;;11.45;;
50605;SDS011;36557;53.572;10.170;2023-07-29T06:39:33;18.48;;;11.05;;
50605;SDS011;36557;53.572;10.170;2023-07-29T06:41:58;15.80;;;11.23;;
50605;SDS011;36557;53.572;10.170;2023-07-29T06:44:24;16.23;;;10.77;;
50605;SDS011;36557;53.572;10.170;2023-07-29T06:46:50;15.98;;;10.52;;
50605;SDS011;36557;53.572;10.170;2023-07-29T06:49:15;14.40;;;10.00;;
50605;SDS011;36557;53.572;10.170;2023-07-29T06:51:41;13.73;;;9.85;;
50605;SDS011;36557;53.572;10.170;2023-07-29T06:54:07;11.82;;;9.48;;
50605;SDS011;36557;53.572;10.170;2023-07-29T06:56:32;14.48;;;9.95;;
50605;SDS011;36557;53.572;10.170;2023-07-29T06:58:58;14.63;;;10.05;;
50605;SDS011;36557;53.572;10.170;2023-07-29T07:01:24;13.93;;;8.75;;
50605;SDS011;36557;53.572;10.170;2023-07-29T07:03:49;15.40;;;9.70;;
50605;SDS011;36557;53.572;10.170;2023-07-29T07:06:15;14.00;;;9.65;;
50605;SDS011;36557;53.572;10.170;2023-07-29T07:08:41;29.38;;;17.27;;
50605;SDS011;36557;53.572;10.170;2023-07-29T07:11:06;15.43;;;10.65;;
50605;SDS011;36557;53.572;10.170;2023-07-29T07:13:33;14.35;;;9.15;;
50605;SDS011;36557;53.572;10.170;2023-07-29T07:15:58;14.02;;;9.43;;
50605;SDS011;36557;53.572;10.170;2023-07-29T07:18:24;13.30;;;9.90;;
50605;SDS011;36557;53.572;10.170;2023-07-29T07:20:50;14.88;;;9.25;;
50605;SDS011;36557;53.572;10.170;2023-07-29T07:23:16;12.30;;;9.27;;
50605;SDS011;36557;53.572;10.170;2023-07-29T07:25:43;14.88;;;9.45;;
50605;SDS011;36557;53.572;10.170;2023-07-29T07:28:09;11.93;;;8.68;;
50605;SDS011;36557;53.572;10.170;2023-07-29T07:30:35;14.75;;;10.48;;
50605;SDS011;36557;53.572;10.170;2023-07-29T07:33:05;15.45;;;9.77;;
50605;SDS011;36557;53.572;10.170;2023-07-29T07:35:31;12.07;;;9.00;;
50605;SDS011;36557;53.572;10.170;2023-07-29T07:37:56;12.88;;;8.55;;
50605;SDS011;36557;53.572;10.170;2023-07-29T07:40:23;10.50;;;8.65;;
50605;SDS011;36557;53.572;10.170;2023-07-29T07:42:49;10.70;;;8.70;;
50605;SDS011;36557;53.572;10.170;2023-07-29T07:45:15;12.45;;;8.50;;
50605;SDS011;36557;53.572;10.170;2023-07-29T07:47:42;10.48;;;8.70;;
50605;SDS011;36557;53.572;10.170;2023-07-29T07:50:08;9.85;;;8.38;;
50605;SDS011;36557;53.572;10.170;2023-07-29T07:52:34;12.82;;;8.57;;
50605;SDS011;36557;53.572;10.170;2023-07-29T07:55:00;11.90;;;8.40;;
50605;SDS011;36557;53.572;10.170;2023-07-29T07:57:26;9.52;;;7.22;;
50605;SDS011;36557;53.572;10.170;2023-07-29T07:59:51;9.73;;;7.03;;
50605;SDS011;36557;53.572;10.170;2023-07-29T08:02:17;13.65;;;6.80;;
50605;SDS011;36557;53.572;10.170;2023-07-29T08:04:43;9.77;;;6.35;;
50605;SDS011;36557;53.572;10.170;2023-07-29T08:07:09;8.70;;;6.13;;
50605;SDS011;36557;53.572;10.170;2023-07-29T08:09:35;8.35;;;6.63;;
50605;SDS011;36557;53.572;10.170;2023-07-29T08:12:00;9.75;;;6.47;;
50605;SDS011;36557;53.572;10.170;2023-07-29T08:14:26;8.95;;;6.60;;
50605;SDS011;36557;53.572;10.170;2023-07-29T08:16:52;7.28;;;5.80;;
50605;SDS011;36557;53.572;10.170;2023-07-29T08:19:17;7.03;;;5.28;;
50605;SDS011;36557;53.572;10.170;2023-07-29T08:21:43;9.13;;;5.65;;
50605;SDS011;36557;53.572;10.170;2023-07-29T08:24:09;8.23;;;5.32;;
50605;SDS011;36557;53.572;10.170;2023-07-29T08:26:35;6.68;;;5.22;;
50605;SDS011;36557;53.572;10.170;2023-07-29T08:29:00;8.80;;;4.53;;
50605;SDS011;36557;53.572;10.170;2023-07-29T08:31:26;7.95;;;5.43;;
50605;SDS011;36557;53.572;10.170;2023-07-29T08:33:52;5.97;;;4.43;;
50605;SDS011;36557;53.572;10.170;2023-07-29T08:36:17;7.47;;;4.47;;
50605;SDS011;36557;53.572;10.170;2023-07-29T08:38:43;5.60;;;4.32;;
50605;SDS011;36557;53.572;10.170;2023-07-29T08:43:57;7.15;;;4.50;;
50605;SDS011;36557;53.572;10.170;2023-07-29T08:46:26;5.05;;;4.53;;
50605;SDS011;36557;53.572;10.170;2023-07-29T08:48:53;6.80;;;4.80;;
50605;SDS011;36557;53.572;10.170;2023-07-29T08:51:20;5.53;;;4.53;;
50605;SDS011;36557;53.572;10.170;2023-07-29T08:53:48;6.07;;;4.70;;
50605;SDS011;36557;53.572;10.170;2023-07-29T08:56:14;6.57;;;5.13;;
50605;SDS011;36557;53.572;10.170;2023-07-29T08:58:40;6.95;;;4.25;;
50605;SDS011;36557;53.572;10.170;2023-07-29T09:01:07;5.93;;;4.20;;
50605;SDS011;36557;53.572;10.170;2023-07-29T09:03:32;6.25;;;4.60;;
50605;SDS011;36557;53.572;10.170;2023-07-29T09:05:58;5.20;;;4.20;;
50605;SDS011;36557;53.572;10.170;2023-07-29T09:08:25;4.82;;;4.18;;
50605;SDS011;36557;53.572;10.170;2023-07-29T09:10:51;5.00;;;4.40;;
50605;SDS011;36557;53.572;10.170;2023-07-29T09:13:18;6.72;;;4.70;;
50605;SDS011;36557;53.572;10.170;2023-07-29T09:15:45;6.40;;;4.68;;
50605;SDS011;36557;53.572;10.170;2023-07-29T09:18:11;6.75;;;4.45;;
50605;SDS011;36557;53.572;10.170;2023-07-29T09:20:40;8.02;;;4.32;;
50605;SDS011;36557;53.572;10.170;2023-07-29T09:23:09;6.90;;;5.25;;
50605;SDS011;36557;53.572;10.170;2023-07-29T09:25:39;7.65;;;5.03;;
50605;SDS011;36557;53.572;10.170;2023-07-29T09:28:09;5.90;;;4.65;;
50605;SDS011;36557;53.572;10.170;2023-07-29T09:30:39;7.72;;;5.05;;
50605;SDS011;36557;53.572;10.170;2023-07-29T09:33:06;9.50;;;5.32;;
50605;SDS011;36557;53.572;10.170;2023-07-29T09:35:33;7.07;;;5.35;;
50605;SDS011;36557;53.572;10.170;2023-07-29T09:38:03;6.53;;;4.75;;
50605;SDS011;36557;53.572;10.170;2023-07-29T09:40:38;6.32;;;5.03;;
50605;SDS011;36557;53.572;10.170;2023-07-29T09:43:05;4.85;;;4.35;;
50605;SDS011;36557;53.572;10.170;2023-07-29T09:45:33;9.32;;;7.15;;
50605;SDS011;36557;53.572;10.170;2023-07-29T09:47:59;5.88;;;4.80;;
50605;SDS011;36557;53.572;10.170;2023-07-29T09:50:26;6.38;;;4.78;;
50605;SDS011;36557;53.572;10.170;2023-07-29T09:52:52;7.22;;;4.60;;
50605;SDS011;36557;53.572;10.170;2023-07-29T09:55:21;7.68;;;5.00;;
50605;SDS011;36557;53.572;10.170;2023-07-29T09:57:48;6.13;;;4.60;;
50605;SDS011;36557;53.572;10.170;2023-07-29T10:00:22;7.20;;;4.72;;
50605;SDS011;36557;53.572;10.170;2023-07-29T10:02:48;7.82;;;4.85;;
50605;SDS011;36557;53.572;10.170;2023-07-29T10:05:15;6.10;;;4.40;;
50605;SDS011;36557;53.572;10.170;2023-07-29T10:07:41;5.40;;;4.03;;
50605;SDS011;36557;53.572;10.170;2023-07-29T10:10:07;6.93;;;4.57;;
50605;SDS011;36557;53.572;10.170;2023-07-29T10:12:34;6.43;;;4.72;;
50605;SDS011;36557;53.572;10.170;2023-07-29T10:15:02;5.30;;;4.50;;
50605;SDS011;36557;53.572;10.170;2023-07-29T10:17:35;6.05;;;4.65;;
50605;SDS011;36557;53.572;10.170;2023-07-29T10:20:05;6.53;;;4.45;;
50605;SDS011;36557;53.572;10.170;2023-07-29T10:22:35;7.50;;;4.45;;
50605;SDS011;36557;53.572;10.170;2023-07-29T10:25:09;5.63;;;4.13;;
50605;SDS011;36557;53.572;10.170;2023-07-29T10:30:17;4.00;;;3.28;;
50605;SDS011;36557;53.572;10.170;2023-07-29T10:32:43;5.40;;;3.20;;
50605;SDS011;36557;53.572;10.170;2023-07-29T10:35:13;4.57;;;3.35;;
50605;SDS011;36557;53.572;10.170;2023-07-29T10:37:40;4.88;;;3.13;;
50605;SDS011;36557;53.572;10.170;2023-07-29T10:40:08;2.63;;;2.38;;
50605;SDS011;36557;53.572;10.170;2023-07-29T10:42:35;4.78;;;2.63;;
50605;SDS011;36557;53.572;10.170;2023-07-29T10:45:16;3.72;;;2.13;;
50605;SDS011;36557;53.572;10.170;2023-07-29T10:47:44;5.32;;;3.35;;
50605;SDS011;36557;53.572;10.170;2023-07-29T10:50:17;3.65;;;2.17;;
50605;SDS011;36557;53.572;10.170;2023-07-29T10:52:48;1.65;;;1.55;;
50605;SDS011;36557;53.572;10.170;2023-07-29T10:55:23;2.00;;;1.52;;
50605;SDS011;36557;53.572;10.170;2023-07-29T10:57:49;3.90;;;1.42;;
50605;SDS011;36557;53.572;10.170;2023-07-29T11:00:15;2.22;;;1.80;;
50605;SDS011;36557;53.572;10.170;2023-07-29T11:02:44;2.42;;;1.80;;
50605;SDS011;36557;53.572;10.170;2023-07-29T11:05:24;1.55;;;1.45;;
50605;SDS011;36557;53.572;10.170;2023-07-29T11:07:50;2.13;;;1.73;;
50605;SDS011;36557;53.572;10.170;2023-07-29T11:10:16;2.80;;;1.73;;
50605;SDS011;36557;53.572;10.170;2023-07-29T11:12:42;1.77;;;1.58;;
50605;SDS011;36557;53.572;10.170;2023-07-29T11:15:22;1.80;;;1.60;;
50605;SDS011;36557;53.572;10.170;2023-07-29T11:20:25;2.17;;;1.80;;
50605;SDS011;36557;53.572;10.170;2023-07-29T11:22:55;1.73;;;1.52;;
50605;SDS011;36557;53.572;10.170;2023-07-29T11:25:23;2.90;;;1.50;;
50605;SDS011;36557;53.572;10.170;2023-07-29T11:27:54;1.75;;;1.55;;
50605;SDS011;36557;53.572;10.170;2023-07-29T11:30:21;2.13;;;1.50;;
50605;SDS011;36557;53.572;10.170;2023-07-29T11:32:48;5.32;;;1.63;;
50605;SDS011;36557;53.572;10.170;2023-07-29T11:35:17;1.50;;;1.30;;
50605;SDS011;36557;53.572;10.170;2023-07-29T11:37:44;2.92;;;1.60;;
50605;SDS011;36557;53.572;10.170;2023-07-29T11:40:18;2.42;;;1.50;;
50605;SDS011;36557;53.572;10.170;2023-07-29T11:45:12;2.83;;;1.42;;
50605;SDS011;36557;53.572;10.170;2023-07-29T11:47:39;3.80;;;1.70;;
50605;SDS011;36557;53.572;10.170;2023-07-29T11:50:05;1.63;;;1.40;;
50605;SDS011;36557;53.572;10.170;2023-07-29T11:52:34;2.20;;;1.58;;
50605;SDS011;36557;53.572;10.170;2023-07-29T11:55:04;1.90;;;1.60;;
50605;SDS011;36557;53.572;10.170;2023-07-29T11:57:31;1.70;;;1.40;;
50605;SDS011;36557;53.572;10.170;2023-07-29T12:00:02;1.60;;;1.45;;
50605;SDS011;36557;53.572;10.170;2023-07-29T12:02:29;2.70;;;1.70;;
50605;SDS011;36557;53.572;10.170;2023-07-29T12:04:56;5.07;;;2.15;;
50605;SDS011;36557;53.572;10.170;2023-07-29T12:07:22;2.25;;;1.83;;
50605;SDS011;36557;53.572;10.170;2023-07-29T12:09:48;3.00;;;2.15;;
50605;SDS011;36557;53.572;10.170;2023-07-29T12:12:15;2.85;;;2.50;;
50605;SDS011;36557;53.572;10.170;2023-07-29T12:14:47;3.00;;;2.08;;
50605;SDS011;36557;53.572;10.170;2023-07-29T12:17:14;4.30;;;2.53;;
50605;SDS011;36557;53.572;10.170;2023-07-29T12:19:40;2.88;;;1.75;;
50605;SDS011;36557;53.572;10.170;2023-07-29T12:22:08;2.83;;;2.30;;
50605;SDS011;36557;53.572;10.170;2023-07-29T12:24:38;3.20;;;2.05;;
50605;SDS011;36557;53.572;10.170;2023-07-29T12:27:06;1.98;;;1.60;;
50605;SDS011;36557;53.572;10.170;2023-07-29T12:29:39;2.58;;;1.70;;
50605;SDS011;36557;53.572;10.170;2023-07-29T12:32:08;2.50;;;1.67;;
50605;SDS011;36557;53.572;10.170;2023-07-29T12:34:36;2.08;;;1.75;;
50605;SDS011;36557;53.572;10.170;2023-07-29T12:37:03;2.47;;;1.63;;
50605;SDS011;36557;53.572;10.170;2023-07-29T12:39:31;4.63;;;1.85;;
50605;SDS011;36557;53.572;10.170;2023-07-29T12:41:59;2.58;;;2.03;;
50605;SDS011;36557;53.572;10.170;2023-07-29T12:44:33;2.22;;;1.70;;
50605;SDS011;36557;53.572;10.170;2023-07-29T12:47:01;2.38;;;1.80;;
50605;SDS011;36557;53.572;10.170;2023-07-29T12:49:28;3.20;;;1.75;;
50605;SDS011;36557;53.572;10.170;2023-07-29T12:51:55;2.15;;;1.70;;
50605;SDS011;36557;53.572;10.170;2023-07-29T12:54:21;1.98;;;1.60;;
50605;SDS011;36557;53.572;10.170;2023-07-29T12:56:47;2.75;;;1.77;;
50605;SDS011;36557;53.572;10.170;2023-07-29T12:59:13;4.65;;;3.15;;
50605;SDS011;36557;53.572;10.170;2023-07-29T13:01:38;8.45;;;3.00;;
50605;SDS011;36557;53.572;10.170;2023-07-29T13:04:04;14.70;;;3.63;;
50605;SDS011;36557;53.572;10.170;2023-07-29T13:06:30;186.38;;;16.00;;
50605;SDS011;36557;53.572;10.170;2023-07-29T13:08:56;31.35;;;4.65;;
50605;SDS011;36557;53.572;10.170;2023-07-29T13:11:21;2.38;;;1.42;;
50605;SDS011;36557;53.572;10.170;2023-07-29T13:13:47;4.20;;;1.13;;
50605;SDS011;36557;53.572;10.170;2023-07-29T13:16:13;162.85;;;16.38;;
50605;SDS011;36557;53.572;10.170;2023-07-29T13:18:39;10.77;;;2.53;;
50605;SDS011;36557;53.572;10.170;2023-07-29T13:21:05;2.60;;;1.60;;
50605;SDS011;36557;53.572;10.170;2023-07-29T13:23:31;27.90;;;3.42;;
50605;SDS011;36557;53.572;10.170;2023-07-29T13:25:57;14.65;;;2.40;;
50605;SDS011;36557;53.572;10.170;2023-07-29T13:28:23;16.02;;;2.67;;
50605;SDS011;36557;53.572;10.170;2023-07-29T13:30:49;6.10;;;1.67;;
50605;SDS011;36557;53.572;10.170;2023-07-29T13:33:14;1.13;;;1.00;;
50605;SDS011;36557;53.572;10.170;2023-07-29T13:35:40;2.25;;;1.27;;
50605;SDS011;36557;53.572;10.170;2023-07-29T13:38:06;2.20;;;1.20;;
50605;SDS011;36557;53.572;10.170;2023-07-29T13:40:31;1.45;;;1.08;;
50605;SDS011;36557;53.572;10.170;2023-07-29T13:42:57;1.98;;;1.05;;
50605;SDS011;36557;53.572;10.170;2023-07-29T13:45:23;1.33;;;1.13;;
50605;SDS011;36557;53.572;10.170;2023-07-29T13:47:49;1.83;;;1.20;;
50605;SDS011;36557;53.572;10.170;2023-07-29T13:50:15;2.10;;;1.27;;
50605;SDS011;36557;53.572;10.170;2023-07-29T13:52:41;1.30;;;1.15;;
50605;SDS011;36557;53.572;10.170;2023-07-29T13:55:07;1.15;;;0.80;;
50605;SDS011;36557;53.572;10.170;2023-07-29T13:57:33;2.58;;;1.00;;
50605;SDS011;36557;53.572;10.170;2023-07-29T13:59:59;1.63;;;1.20;;
50605;SDS011;36557;53.572;10.170;2023-07-29T14:02:24;2.00;;;1.23;;
50605;SDS011;36557;53.572;10.170;2023-07-29T14:04:53;2.35;;;1.10;;
50605;SDS011;36557;53.572;10.170;2023-07-29T14:07:19;4.38;;;1.20;;
50605;SDS011;36557;53.572;10.170;2023-07-29T14:09:45;2.75;;;1.42;;
50605;SDS011;36557;53.572;10.170;2023-07-29T14:12:11;1.58;;;1.30;;
50605;SDS011;36557;53.572;10.170;2023-07-29T14:14:39;4.15;;;2.80;;
50605;SDS011;36557;53.572;10.170;2023-07-29T14:17:05;1.75;;;1.02;;
50605;SDS011;36557;53.572;10.170;2023-07-29T14:19:33;3.35;;;1.23;;
50605;SDS011;36557;53.572;10.170;2023-07-29T14:21:59;1.73;;;1.00;;
50605;SDS011;36557;53.572;10.170;2023-07-29T14:24:25;2.03;;;1.25;;
50605;SDS011;36557;53.572;10.170;2023-07-29T14:26:50;1.73;;;1.10;;
50605;SDS011;36557;53.572;10.170;2023-07-29T14:29:16;1.17;;;1.00;;
50605;SDS011;36557;53.572;10.170;2023-07-29T14:31:42;2.42;;;1.15;;
50605;SDS011;36557;53.572;10.170;2023-07-29T14:34:08;2.35;;;1.08;;
50605;SDS011;36557;53.572;10.170;2023-07-29T14:36:34;1.90;;;1.17;;